Time;durP1;ratioP1;P1;durP2;ratioP2;P2;SDS_P1;SDS_P2;PMS_P1;PMS_P2;Temp;Humidity;BMP_temperature;BMP_pressure;BME280_temperature;BME280_humidity;BME280_pressure;Samples;Min_cycle;Max_cycle;Signal;HPM_P1;HPM_P2
2021/12/24 00:02:18;;;;;;;49.42;25.63;;;;;;;5.72;100.00;100341.97;5034537;28;20549;-55
2021/12/24 00:04:48;;;;;;;50.28;25.80;;;;;;;5.73;100.00;100344.50;5031562;28;20148;-56
2021/12/24 00:07:16;;;;;;;46.42;24.92;;;;;;;5.75;100.00;100341.81;5033413;28;20151;-55
2021/12/24 00:09:44;;;;;;;46.33;23.77;;;;;;;5.85;100.00;100336.94;5035150;28;20488;-56
2021/12/24 00:12:16;;;;;;;45.60;24.30;;;;;;;5.89;100.00;100341.06;5034836;28;20053;-55
2021/12/24 00:14:50;;;;;;;44.40;23.38;;;;;;;5.86;100.00;100336.00;5034872;28;20045;-56
2021/12/24 00:17:25;;;;;;;43.67;23.13;;;;;;;5.96;100.00;100328.53;5032446;28;20410;-56
2021/12/24 00:20:32;;;;;;;45.85;24.88;;;;;;;5.92;100.00;100323.47;5032852;28;20065;-54
2021/12/24 00:37:00;;;;;;;49.47;24.77;;;;;;;6.11;100.00;100327.75;5034606;28;20115;-55
2021/12/24 00:39:28;;;;;;;53.80;26.23;;;;;;;6.09;100.00;100324.38;5034650;28;20072;-57
2021/12/24 00:41:56;;;;;;;50.65;25.15;;;;;;;6.14;100.00;100316.28;5034349;28;20052;-56
2021/12/24 00:44:24;;;;;;;49.78;25.58;;;;;;;6.22;100.00;100304.50;5033904;28;20111;-56
2021/12/24 00:46:52;;;;;;;55.58;27.10;;;;;;;6.17;100.00;100309.13;5033599;28;20037;-56
2021/12/24 00:49:20;;;;;;;55.45;27.58;;;;;;;6.22;100.00;100309.72;5034106;28;20045;-56
2021/12/24 00:52:06;;;;;;;52.53;26.08;;;;;;;6.25;100.00;100313.94;5034185;28;20103;-56
2021/12/24 00:57:22;;;;;;;52.70;26.13;;;;;;;6.33;100.00;100309.13;5032426;28;20053;-51
2021/12/24 00:59:50;;;;;;;55.72;27.73;;;;;;;6.32;100.00;100304.81;5033798;28;20092;-54
2021/12/24 01:02:18;;;;;;;49.92;24.77;;;;;;;6.33;100.00;100300.44;5030383;28;20458;-50
2021/12/24 01:04:46;;;;;;;48.35;24.67;;;;;;;6.33;100.00;100301.28;5030405;28;20049;-52
2021/12/24 01:07:15;;;;;;;56.22;25.02;;;;;;;6.40;100.00;100293.94;5034048;28;20195;-50
2021/12/24 01:09:44;;;;;;;55.90;24.45;;;;;;;6.42;100.00;100303.38;5033809;28;20049;-51
2021/12/24 01:12:12;;;;;;;49.90;24.05;;;;;;;6.45;100.00;100298.91;5032193;28;20053;-51
2021/12/24 01:14:40;;;;;;;48.60;22.20;;;;;;;6.40;100.00;100293.94;5030613;28;20053;-51
2021/12/24 01:17:16;;;;;;;47.65;24.23;;;;;;;6.50;100.00;100295.09;5033612;28;20049;-51
2021/12/24 01:19:47;;;;;;;44.72;22.85;;;;;;;6.53;100.00;100291.47;5033550;28;20506;-54
2021/12/24 01:22:35;;;;;;;49.58;23.60;;;;;;;6.55;100.00;100294.84;5031901;28;20049;-53
2021/12/24 01:25:12;;;;;;;50.15;24.08;;;;;;;6.58;100.00;100290.25;5030924;28;20050;-52
2021/12/24 01:27:59;;;;;;;46.42;23.17;;;;;;;6.58;100.00;100295.50;5033738;28;20072;-54
2021/12/24 01:39:05;;;;;;;40.45;22.17;;;;;;;6.70;100.00;100283.50;5033354;28;20392;-52
2021/12/24 01:44:26;;;;;;;42.25;20.30;;;;;;;6.77;100.00;100279.59;5032549;28;20060;-53
2021/12/24 01:46:56;;;;;;;40.80;19.67;;;;;;;6.80;100.00;100282.97;5030743;28;20053;-53
2021/12/24 01:49:25;;;;;;;42.28;19.60;;;;;;;6.84;100.00;100276.63;5030980;28;20046;-54
2021/12/24 01:51:54;;;;;;;40.25;19.40;;;;;;;6.88;100.00;100267.69;5032996;28;20099;-53
2021/12/24 01:54:22;;;;;;;35.40;19.77;;;;;;;6.90;100.00;100273.69;5032954;28;20100;-56
2021/12/24 01:56:52;;;;;;;35.85;18.70;;;;;;;6.91;100.00;100268.34;5033105;28;20053;-52
2021/12/24 01:59:21;;;;;;;34.00;19.27;;;;;;;6.94;100.00;100276.00;5033145;28;20107;-53
2021/12/24 02:01:50;;;;;;;33.95;17.40;;;;;;;6.99;100.00;100267.06;5032799;28;20053;-54
2021/12/24 02:04:18;;;;;;;34.90;18.05;;;;;;;6.99;100.00;100273.13;5032768;28;20419;-53
2021/12/24 02:06:48;;;;;;;33.78;17.98;;;;;;;7.06;100.00;100271.84;5032768;28;20076;-52
2021/12/24 02:09:16;;;;;;;30.63;16.83;;;;;;;7.12;100.00;100268.00;5031313;28;20057;-54
2021/12/24 02:11:44;;;;;;;32.35;17.35;;;;;;;7.07;100.00;100270.88;5032681;28;20049;-54
2021/12/24 02:14:18;;;;;;;33.38;16.67;;;;;;;7.17;100.00;100265.97;5030997;28;20057;-50
2021/12/24 02:17:11;;;;;;;35.63;17.63;;;;;;;7.17;100.00;100263.34;5032482;28;20049;-50
2021/12/24 02:30:45;;;;;;;41.05;20.17;;;;;;;7.27;100.00;100256.63;5032169;28;20041;-53
2021/12/24 02:33:14;;;;;;;39.85;18.88;;;;;;;7.29;100.00;100259.13;5032067;28;20069;-54
2021/12/24 02:35:42;;;;;;;42.35;20.15;;;;;;;7.31;100.00;100256.41;5032229;28;20053;-53
2021/12/24 02:38:12;;;;;;;44.05;21.80;;;;;;;7.32;100.00;100258.97;5029665;28;20052;-52
2021/12/24 02:40:40;;;;;;;37.92;20.30;;;;;;;7.33;100.00;100250.16;5029293;28;20061;-52
2021/12/24 02:43:13;;;;;;;48.10;22.52;;;;;;;7.39;100.00;100254.19;5032230;28;20193;-54
2021/12/24 02:45:43;;;;;;;46.70;20.33;;;;;;;7.41;100.00;100250.53;5032044;28;20508;-53
2021/12/24 02:48:35;;;;;;;44.70;22.30;;;;;;;7.37;100.00;100256.06;5030587;28;20061;-54
2021/12/24 02:53:59;;;;;;;45.42;21.98;;;;;;;7.41;100.00;100250.53;5032028;28;20053;-54
2021/12/24 02:56:31;;;;;;;53.78;23.65;;;;;;;7.39;100.00;100244.56;5030498;28;20060;-54
2021/12/24 02:59:02;;;;;;;54.08;22.75;;;;;;;7.40;100.00;100245.41;5032276;28;20064;-53
2021/12/24 03:01:33;;;;;;;49.30;24.90;;;;;;;7.45;100.00;100243.34;5030804;28;20100;-55
2021/12/24 03:04:01;;;;;;;54.10;24.27;;;;;;;7.43;100.00;100248.69;5028571;28;20061;-54
2021/12/24 03:06:33;;;;;;;56.13;23.60;;;;;;;7.49;100.00;100244.00;5029220;28;20053;-53
2021/12/24 03:09:06;;;;;;;49.35;22.70;;;;;;;7.45;100.00;100244.19;5030217;28;20415;-54
2021/12/24 03:11:35;;;;;;;50.08;24.67;;;;;;;7.48;100.00;100240.53;5029020;28;20049;-53
2021/12/24 03:14:05;;;;;;;54.63;25.38;;;;;;;7.49;100.00;100242.22;5031295;28;20080;-53
2021/12/24 03:16:34;;;;;;;57.10;25.00;;;;;;;7.51;100.00;100239.50;5031754;28;20056;-54
2021/12/24 03:19:02;;;;;;;61.30;26.15;;;;;;;7.53;100.00;100242.88;5031329;28;20411;-54
2021/12/24 03:21:36;;;;;;;61.85;26.83;;;;;;;7.57;100.00;100247.81;5031252;28;20084;-54
2021/12/24 03:26:52;;;;;;;60.58;26.88;;;;;;;7.59;100.00;100239.88;5030611;28;20084;-53
2021/12/24 03:29:20;;;;;;;66.32;26.42;;;;;;;7.64;100.00;100240.44;5030973;28;20381;-53
2021/12/24 03:31:49;;;;;;;72.07;28.45;;;;;;;7.61;100.00;100245.88;5029701;28;20049;-53
2021/12/24 03:34:19;;;;;;;69.70;28.98;;;;;;;7.63;100.00;100248.38;5026388;28;20061;-54
2021/12/24 03:36:48;;;;;;;73.93;29.15;;;;;;;7.63;100.00;100257.06;5031195;28;20512;-54
2021/12/24 03:39:19;;;;;;;68.50;29.42;;;;;;;7.63;100.00;100256.25;5031418;28;20096;-54
2021/12/24 03:41:47;;;;;;;65.40;26.98;;;;;;;7.63;100.00;100254.44;5031342;28;20049;-56
2021/12/24 03:44:17;;;;;;;64.30;28.27;;;;;;;7.65;100.00;100251.72;5031437;28;20499;-54
2021/12/24 03:46:55;;;;;;;54.28;25.75;;;;;;;7.68;100.00;100251.56;5031163;28;20041;-55
2021/12/24 03:49:33;;;;;;;55.83;27.27;;;;;;;7.69;100.00;100258.44;5030094;28;20041;-55
2021/12/24 03:52:15;;;;;;;60.08;25.35;;;;;;;7.73;100.00;100258.19;5030971;28;20095;-54
2021/12/24 03:57:35;;;;;;;63.45;24.63;;;;;;;7.79;100.00;100264.81;5025801;28;20100;-55
2021/12/24 04:00:10;;;;;;;58.53;23.77;;;;;;;7.80;100.00;100269.13;5030981;28;20052;-54
2021/12/24 04:02:38;;;;;;;51.58;22.52;;;;;;;7.83;100.00;100260.22;5029213;28;20496;-54
2021/12/24 04:05:06;;;;;;;52.70;23.63;;;;;;;7.81;100.00;100264.72;5028137;28;20053;-53
2021/12/24 04:07:34;;;;;;;45.13;20.88;;;;;;;7.82;100.00;100264.59;5029874;28;20045;-55
2021/12/24 04:10:12;;;;;;;39.63;20.48;;;;;;;7.83;100.00;100268.91;5031395;28;20057;-54
2021/12/24 04:12:41;;;;;;;48.50;21.77;;;;;;;7.81;100.00;100260.31;5030916;28;20061;-54
2021/12/24 04:15:10;;;;;;;43.95;20.17;;;;;;;7.84;100.00;100252.28;5031128;28;20107;-53
2021/12/24 04:17:40;;;;;;;43.85;19.23;;;;;;;7.90;100.00;100262.34;5030976;28;20112;-54
2021/12/24 04:25:41;;;;;;;40.97;18.38;;;;;;;7.84;100.00;100252.28;5030699;28;20053;-54
2021/12/24 04:28:09;;;;;;;43.22;17.48;;;;;;;7.88;100.00;100256.38;5030718;28;20104;-53
2021/12/24 04:30:44;;;;;;;41.67;18.42;;;;;;;7.89;100.00;100246.75;5030560;28;20494;-55
2021/12/24 04:33:17;;;;;;;35.70;19.15;;;;;;;7.87;100.00;100251.25;5030559;28;20042;-52
2021/12/24 04:35:56;;;;;;;32.05;17.67;;;;;;;7.84;100.00;100248.81;5027704;28;20066;-53
2021/12/24 04:38:39;;;;;;;39.08;18.40;;;;;;;7.86;100.00;100245.16;5032597;28;20049;-53
2021/12/24 04:52:28;;;;;;;39.92;18.23;;;;;;;7.85;100.00;100253.09;5032507;28;20038;-53
2021/12/24 05:03:27;;;;;;;38.05;17.33;;;;;;;7.92;100.00;100255.25;5049197;28;20046;-53
2021/12/24 05:06:07;;;;;;;37.90;16.48;;;;;;;7.92;100.00;100251.78;5034014;28;20052;-54
2021/12/24 05:08:42;;;;;;;29.10;16.23;;;;;;;7.90;100.00;100249.25;5033612;28;20046;-51
2021/12/24 05:11:13;;;;;;;30.98;15.13;;;;;;;7.85;100.00;100253.94;5034003;28;20492;-52
2021/12/24 05:13:43;;;;;;;35.55;16.48;;;;;;;7.88;100.00;100258.16;5033757;28;20461;-51
2021/12/24 05:16:22;;;;;;;33.13;15.90;;;;;;;7.90;100.00;100257.13;5033675;28;20068;-54
2021/12/24 05:21:32;;;;;;;37.40;15.50;;;;;;;7.91;100.00;100261.41;5033583;28;20061;-53
2021/12/24 05:21:55;;;;;;;28.10;14.77;;;;;;;7.91;100.00;100257.97;5033581;28;20045;-50
2021/12/24 05:24:25;;;;;;;32.85;15.30;;;;;;;7.91;100.00;100269.28;5033287;28;20057;-53
2021/12/24 05:26:57;;;;;;;37.00;16.15;;;;;;;7.88;100.00;100273.84;5033577;28;20405;-50
2021/12/24 05:29:26;;;;;;;35.38;16.15;;;;;;;7.91;100.00;100271.06;5033436;28;20053;-52
2021/12/24 05:31:55;;;;;;;33.58;16.58;;;;;;;7.93;100.00;100270.03;5033435;28;20048;-53
2021/12/24 05:34:24;;;;;;;35.33;14.80;;;;;;;7.94;100.00;100268.25;5031497;28;20049;-53
2021/12/24 05:36:52;;;;;;;31.00;14.63;;;;;;;7.90;100.00;100278.06;5029367;28;20111;-53
2021/12/24 05:39:22;;;;;;;31.00;14.32;;;;;;;7.89;100.00;100284.22;5032368;28;20057;-54
2021/12/24 05:41:51;;;;;;;27.63;14.57;;;;;;;7.91;100.00;100279.75;5033489;28;20049;-54
2021/12/24 05:44:19;;;;;;;29.38;14.77;;;;;;;7.89;100.00;100286.84;5033218;28;20079;-53
2021/12/24 05:46:48;;;;;;;30.05;14.35;;;;;;;7.91;100.00;100286.78;5033324;28;20447;-53
2021/12/24 05:49:17;;;;;;;35.30;13.82;;;;;;;7.89;100.00;100283.41;5030508;28;20052;-53
2021/12/24 05:51:45;;;;;;;24.98;13.07;;;;;;;7.89;100.00;100284.22;5030724;28;20542;-54
2021/12/24 05:54:13;;;;;;;26.40;13.48;;;;;;;7.86;100.00;100275.75;5032644;28;20045;-53
2021/12/24 05:56:42;;;;;;;28.67;14.40;;;;;;;7.87;100.00;100280.88;5033023;28;20498;-54
2021/12/24 05:59:11;;;;;;;28.50;13.98;;;;;;;7.85;100.00;100276.66;5032927;28;20064;-54
2021/12/24 06:01:39;;;;;;;23.83;13.95;;;;;;;7.85;100.00;100280.13;5032459;28;20508;-54
2021/12/24 06:04:09;;;;;;;27.13;13.60;;;;;;;7.86;100.00;100278.38;5049298;28;20045;-55
2021/12/24 06:06:38;;;;;;;27.88;14.00;;;;;;;7.83;100.00;100283.78;5050166;28;20560;-52
2021/12/24 06:09:06;;;;;;;28.17;14.30;;;;;;;7.83;100.00;100287.25;5051606;28;20480;-53
2021/12/24 06:11:34;;;;;;;25.88;12.68;;;;;;;7.86;100.00;100288.84;5046061;28;20037;-53
2021/12/24 06:14:09;;;;;;;26.88;12.75;;;;;;;7.89;100.00;100279.00;5065499;28;20115;-53
2021/12/24 06:16:46;;;;;;;25.80;11.88;;;;;;;7.84;100.00;100280.22;5069400;28;20109;-55
2021/12/24 06:19:17;;;;;;;23.13;11.73;;;;;;;7.86;100.00;100268.72;5068627;28;20059;-54
2021/12/24 06:21:46;;;;;;;28.65;12.13;;;;;;;7.85;100.00;100274.06;5072593;28;20045;-56
2021/12/24 06:24:14;;;;;;;30.15;11.75;;;;;;;7.83;100.00;100273.31;5045070;28;20068;-54
2021/12/24 06:26:42;;;;;;;19.42;10.52;;;;;;;7.82;100.00;100275.09;5032450;28;20485;-53
2021/12/24 06:29:10;;;;;;;23.13;10.90;;;;;;;7.82;100.00;100277.69;5031954;28;20053;-53
2021/12/24 06:31:38;;;;;;;21.42;10.68;;;;;;;7.77;100.00;100271.91;5030454;28;20052;-53
2021/12/24 06:34:11;;;;;;;24.42;10.43;;;;;;;7.77;100.00;100275.38;5032507;28;20061;-53
2021/12/24 06:36:43;;;;;;;23.55;9.88;;;;;;;7.76;100.00;100284.16;5031143;28;20220;-54
2021/12/24 06:39:13;;;;;;;20.05;10.25;;;;;;;7.79;100.00;100283.13;5028748;28;20060;-53
2021/12/24 06:41:41;;;;;;;26.17;10.70;;;;;;;7.77;100.00;100291.09;5030273;28;20107;-51
2021/12/24 06:44:11;;;;;;;21.60;9.73;;;;;;;7.79;100.00;100283.13;5049972;28;20041;-53
2021/12/24 06:46:42;;;;;;;25.63;9.50;;;;;;;7.79;100.00;100281.34;5032156;28;20049;-54
2021/12/24 06:49:11;;;;;;;21.80;9.45;;;;;;;7.73;100.00;100273.91;5036562;28;20048;-53
2021/12/24 06:51:40;;;;;;;22.00;10.05;;;;;;;7.70;100.00;100289.78;5032111;28;20053;-53
2021/12/24 06:54:10;;;;;;;24.17;9.70;;;;;;;7.69;100.00;100282.88;5031934;28;20053;-53
2021/12/24 06:56:44;;;;;;;25.02;9.88;;;;;;;7.68;100.00;100275.94;5032176;28;20053;-54
2021/12/24 06:59:12;;;;;;;22.05;9.93;;;;;;;7.69;100.00;100280.25;5031835;28;20767;-54
2021/12/24 07:01:40;;;;;;;23.65;10.60;;;;;;;7.65;100.00;100285.75;5028812;28;20057;-53
2021/12/24 07:04:09;;;;;;;23.52;9.93;;;;;;;7.65;100.00;100275.28;5028264;28;20053;-54
2021/12/24 07:06:43;;;;;;;19.10;9.07;;;;;;;7.71;100.00;100288.00;5030840;28;20395;-52
2021/12/24 07:09:13;;;;;;;20.42;8.55;;;;;;;7.64;100.00;100279.69;5032367;28;20057;-52
2021/12/24 07:11:42;;;;;;;20.60;9.77;;;;;;;7.62;100.00;100281.53;5040060;28;20045;-53
2021/12/24 07:14:10;;;;;;;22.42;8.82;;;;;;;7.59;100.00;100287.84;5049898;28;20057;-53
2021/12/24 07:16:39;;;;;;;25.88;8.90;;;;;;;7.59;100.00;100285.22;5048717;28;20037;-52
2021/12/24 07:19:07;;;;;;;22.00;8.30;;;;;;;7.56;100.00;100301.09;5049786;28;20060;-53
2021/12/24 07:21:35;;;;;;;23.25;8.85;;;;;;;7.57;100.00;100294.94;5044516;28;20524;-52
2021/12/24 07:24:04;;;;;;;22.80;8.85;;;;;;;7.65;100.00;100306.69;5031473;28;20720;-52
2021/12/24 07:26:34;;;;;;;22.08;7.32;;;;;;;7.65;100.00;100299.69;5031440;28;20487;-53
2021/12/24 07:29:03;;;;;;;28.17;8.45;;;;;;;7.63;100.00;100309.41;5030317;28;20068;-53
2021/12/24 07:31:31;;;;;;;23.67;9.15;;;;;;;7.60;100.00;100317.47;5031418;28;20068;-53
2021/12/24 07:33:59;;;;;;;26.10;8.57;;;;;;;7.58;100.00;100306.22;5048401;28;20049;-53
2021/12/24 07:36:27;;;;;;;23.23;8.60;;;;;;;7.56;100.00;100311.56;5047312;28;20094;-52
2021/12/24 07:38:55;;;;;;;23.17;8.77;;;;;;;7.49;100.00;100315.50;5050715;28;20503;-52
2021/12/24 07:41:24;;;;;;;20.67;8.20;;;;;;;7.52;100.00;100323.16;5047999;28;20056;-53
2021/12/24 07:43:55;;;;;;;21.23;8.25;;;;;;;7.48;100.00;100326.88;5049551;28;20049;-52
2021/12/24 07:46:31;;;;;;;26.75;9.05;;;;;;;7.47;100.00;100332.22;5051462;28;20041;-51
2021/12/24 07:49:11;;;;;;;24.73;8.45;;;;;;;7.45;100.00;100332.31;5050902;28;20052;-52
2021/12/24 07:52:03;;;;;;;25.08;9.02;;;;;;;7.44;100.00;100331.47;5048670;28;20064;-53
2021/12/24 07:54:32;;;;;;;26.13;8.57;;;;;;;7.53;100.00;100335.31;5049280;28;20056;-55
2021/12/24 07:57:01;;;;;;;24.08;8.32;;;;;;;7.49;100.00;100338.22;5051137;28;20446;-54
2021/12/24 07:59:39;;;;;;;21.88;9.25;;;;;;;7.45;100.00;100332.31;5051191;28;20067;-53
2021/12/24 08:02:10;;;;;;;24.27;9.80;;;;;;;7.45;100.00;100338.38;5051339;28;20546;-54
2021/12/24 08:04:39;;;;;;;26.27;9.13;;;;;;;7.41;100.00;100331.66;5050813;28;20044;-53
2021/12/24 08:07:08;;;;;;;22.00;9.07;;;;;;;7.42;100.00;100338.56;5048613;28;20049;-54
2021/12/24 08:09:37;;;;;;;24.67;8.93;;;;;;;7.44;100.00;100333.22;5047110;28;20041;-54
2021/12/24 08:12:07;;;;;;;25.90;8.63;;;;;;;7.42;100.00;100335.13;5051569;28;20566;-53
2021/12/24 08:14:36;;;;;;;20.23;8.32;;;;;;;7.41;100.00;100336.03;5051392;28;20480;-53
2021/12/24 08:17:06;;;;;;;27.65;9.75;;;;;;;7.39;100.00;100338.75;5052898;28;20045;-53
2021/12/24 08:19:35;;;;;;;22.00;8.93;;;;;;;7.37;100.00;100339.78;5054480;28;20419;-54
2021/12/24 08:22:04;;;;;;;29.42;9.93;;;;;;;7.35;100.00;100331.16;5054895;28;20420;-54
2021/12/24 08:24:33;;;;;;;21.27;9.48;;;;;;;7.42;100.00;100333.34;5054765;28;20478;-52
2021/12/24 08:27:01;;;;;;;21.27;8.75;;;;;;;7.41;100.00;100334.25;5054702;28;20044;-54
2021/12/24 08:29:29;;;;;;;24.85;9.73;;;;;;;7.38;100.00;100338.84;5053318;28;20048;-53
2021/12/24 08:31:58;;;;;;;18.52;9.57;;;;;;;7.45;100.00;100337.53;5052182;28;20057;-55
2021/12/24 08:34:28;;;;;;;21.92;10.07;;;;;;;7.44;100.00;100328.00;5053144;28;20045;-51
2021/12/24 08:36:56;;;;;;;22.73;9.95;;;;;;;7.41;100.00;100333.44;5054069;28;20056;-53
2021/12/24 08:39:24;;;;;;;19.67;9.13;;;;;;;7.41;100.00;100333.44;5050989;28;20053;-51
2021/12/24 08:41:54;;;;;;;24.20;10.02;;;;;;;7.39;100.00;100322.19;5052113;28;20136;-53
2021/12/24 08:44:25;;;;;;;26.85;10.02;;;;;;;7.36;100.00;100322.38;5054325;28;20068;-54
2021/12/24 08:46:53;;;;;;;25.33;9.65;;;;;;;7.46;100.00;100328.78;5054243;28;20045;-52
2021/12/24 08:49:23;;;;;;;21.75;10.55;;;;;;;7.37;100.00;100331.94;5054019;28;20067;-53
2021/12/24 08:51:52;;;;;;;25.92;10.05;;;;;;;7.35;100.00;100320.69;5054168;28;20384;-50
2021/12/24 08:54:21;;;;;;;19.92;9.40;;;;;;;7.36;100.00;100325.00;5054157;28;20041;-54
2021/12/24 08:56:52;;;;;;;26.20;10.43;;;;;;;7.34;100.00;100324.28;5053965;28;20037;-50
2021/12/24 08:59:22;;;;;;;24.52;10.57;;;;;;;7.34;100.00;100319.88;5053978;28;20049;-53
2021/12/24 09:01:51;;;;;;;27.73;10.80;;;;;;;7.32;100.00;100316.53;5051755;28;20128;-54
2021/12/24 09:04:20;;;;;;;27.80;10.75;;;;;;;7.33;100.00;100312.13;5050332;28;20099;-53
2021/12/24 09:06:48;;;;;;;25.13;11.50;;;;;;;7.34;100.00;100313.81;5053594;28;20478;-51
2021/12/24 09:09:18;;;;;;;24.88;12.77;;;;;;;7.28;100.00;100300.16;5053941;28;20379;-52
2021/12/24 09:11:49;;;;;;;29.13;12.75;;;;;;;7.27;100.00;100303.69;5053708;28;20045;-50
2021/12/24 09:14:18;;;;;;;27.27;12.32;;;;;;;7.34;100.00;100313.81;5052261;28;20652;-53
2021/12/24 09:16:48;;;;;;;32.15;11.65;;;;;;;7.35;100.00;100312.84;5053800;28;20491;-49
2021/12/24 09:19:22;;;;;;;24.67;12.32;;;;;;;7.36;100.00;100306.69;5053541;28;20061;-50
2021/12/24 09:21:50;;;;;;;27.02;12.20;;;;;;;7.32;100.00;100299.97;5053607;28;20045;-48
2021/12/24 09:24:21;;;;;;;32.65;12.55;;;;;;;7.33;100.00;100302.47;5050118;28;20472;-51
2021/12/24 09:26:49;;;;;;;24.70;11.82;;;;;;;7.33;100.00;100301.66;5051188;28;20056;-51
2021/12/24 09:29:17;;;;;;;32.10;12.15;;;;;;;7.37;100.00;100298.75;5053253;28;20041;-56
2021/12/24 09:31:45;;;;;;;27.77;12.35;;;;;;;7.35;100.00;100294.53;5052585;28;20488;-53
2021/12/24 09:34:14;;;;;;;24.02;12.05;;;;;;;7.43;100.00;100292.31;5049777;28;20044;-51
2021/12/24 09:36:42;;;;;;;28.05;12.23;;;;;;;7.42;100.00;100295.88;5052010;28;20053;-52
2021/12/24 09:39:10;;;;;;;31.63;12.55;;;;;;;7.40;100.00;100288.13;5050691;28;20064;-53
2021/12/24 09:41:40;;;;;;;25.48;11.80;;;;;;;7.40;100.00;100300.34;5049585;28;20063;-53
2021/12/24 09:44:09;;;;;;;27.08;11.60;;;;;;;7.40;100.00;100295.09;5053223;28;20056;-53
2021/12/24 09:46:42;;;;;;;32.47;12.32;;;;;;;7.38;100.00;100289.16;5053089;28;20040;-54
2021/12/24 09:49:10;;;;;;;25.35;11.75;;;;;;;7.40;100.00;100295.97;5053485;28;20411;-54
2021/12/24 09:51:41;;;;;;;25.42;11.32;;;;;;;7.44;100.00;100289.63;5052806;28;20048;-52
2021/12/24 09:54:11;;;;;;;27.80;11.45;;;;;;;7.42;100.00;100301.09;5049327;28;20377;-53
2021/12/24 09:56:42;;;;;;;27.90;10.68;;;;;;;7.42;100.00;100290.63;5050711;28;20385;-54
2021/12/24 09:59:10;;;;;;;25.92;10.75;;;;;;;7.51;100.00;100290.09;5052746;28;20037;-53
2021/12/24 10:01:42;;;;;;;29.30;10.73;;;;;;;7.46;100.00;100292.13;5051424;28;20056;-52
2021/12/24 10:04:12;;;;;;;24.75;10.25;;;;;;;7.44;100.00;100289.63;5052946;28;20053;-53
2021/12/24 10:06:49;;;;;;;23.58;11.88;;;;;;;7.45;100.00;100291.28;5052901;28;20053;-52
2021/12/24 10:09:17;;;;;;;33.83;11.85;;;;;;;7.48;100.00;100287.63;5051424;28;20040;-54
2021/12/24 10:11:50;;;;;;;31.90;10.57;;;;;;;7.50;100.00;100288.41;5050420;28;20045;-53
2021/12/24 10:14:20;;;;;;;29.17;10.90;;;;;;;7.47;100.00;100279.88;5051361;28;20041;-54
2021/12/24 10:16:51;;;;;;;32.75;13.23;;;;;;;7.53;100.00;100284.75;5052229;28;20149;-54
2021/12/24 10:19:20;;;;;;;27.77;11.27;;;;;;;7.54;100.00;100284.66;5048033;28;20064;-54
2021/12/24 10:21:57;;;;;;;26.50;11.43;;;;;;;7.54;100.00;100287.28;5050507;28;20427;-53
2021/12/24 10:24:26;;;;;;;30.85;12.77;;;;;;;7.53;100.00;100290.00;5050316;28;20056;-54
2021/12/24 10:26:58;;;;;;;29.63;11.35;;;;;;;7.54;100.00;100294.25;5049907;28;20041;-54
2021/12/24 10:29:30;;;;;;;28.83;12.20;;;;;;;7.53;100.00;100290.81;5051768;28;20052;-56
2021/12/24 10:31:59;;;;;;;;;;;;;;;7.54;100.00;100292.50;5052741;28;20049;-55
2021/12/24 10:34:29;;;;;;;27.15;10.90;;;;;;;7.55;100.00;100296.81;5051953;28;20011;-55
2021/12/24 10:37:13;;;;;;;34.38;11.52;;;;;;;7.61;100.00;100290.34;5051589;28;20079;-55
2021/12/24 10:39:45;;;;;;;24.92;11.98;;;;;;;7.55;100.00;100302.03;5052050;28;20045;-54
2021/12/24 10:42:18;;;;;;;29.75;12.00;;;;;;;7.55;100.00;100302.03;5052309;28;20045;-54
2021/12/24 10:44:48;;;;;;;28.48;12.80;;;;;;;7.59;100.00;100303.53;5050583;28;20037;-53
2021/12/24 10:47:19;;;;;;;21.67;11.02;;;;;;;7.60;100.00;100307.81;5049082;28;20064;-55
2021/12/24 10:50:04;;;;;;;25.23;10.27;;;;;;;7.56;100.00;100301.09;5050114;28;20595;-54
2021/12/24 10:55:38;;;;;;;29.02;10.27;;;;;;;7.55;100.00;100296.81;5050539;28;20126;-54
2021/12/24 10:58:15;;;;;;;36.70;12.93;;;;;;;7.56;100.00;100297.66;5048901;28;20055;-51
2021/12/24 11:00:48;;;;;;;30.58;12.07;;;;;;;7.56;100.00;100292.41;5051478;28;20064;-53
2021/12/24 11:03:21;;;;;;;32.47;11.63;;;;;;;7.56;100.00;100290.63;5048139;28;20048;-53
2021/12/24 11:05:51;;;;;;;24.27;10.52;;;;;;;7.56;100.00;100293.25;5049390;28;20128;-54
2021/12/24 11:08:22;;;;;;;27.13;10.85;;;;;;;7.56;100.00;100288.00;5051552;28;20049;-54
2021/12/24 11:10:51;;;;;;;31.02;11.50;;;;;;;7.56;100.00;100289.78;5051569;28;20407;-53
2021/12/24 11:13:28;;;;;;;26.83;10.82;;;;;;;7.55;100.00;100282.88;5050913;28;20148;-54
2021/12/24 11:15:57;;;;;;;29.77;10.82;;;;;;;7.51;100.00;100287.47;5048913;28;20052;-53
2021/12/24 11:18:28;;;;;;;32.83;9.40;;;;;;;7.59;100.00;100284.34;5049148;28;20049;-54
2021/12/24 11:20:57;;;;;;;23.13;11.07;;;;;;;7.57;100.00;100284.47;5049283;28;20052;-53
2021/12/24 11:23:27;;;;;;;26.08;11.23;;;;;;;7.57;100.00;100284.47;5048276;28;20587;-54
2021/12/24 11:25:57;;;;;;;28.48;10.85;;;;;;;7.59;100.00;100285.22;5050975;28;20049;-54
2021/12/24 11:28:28;;;;;;;22.55;10.10;;;;;;;7.59;100.00;100284.34;5050534;28;20400;-54
2021/12/24 11:30:58;;;;;;;30.52;10.27;;;;;;;7.58;100.00;100280.06;5048737;28;20059;-52
2021/12/24 11:33:29;;;;;;;27.80;9.15;;;;;;;7.63;100.00;100279.78;5050245;28;20041;-54
2021/12/24 11:36:00;;;;;;;26.35;10.00;;;;;;;7.61;100.00;100282.50;5051327;28;20041;-54
2021/12/24 11:38:32;;;;;;;28.92;9.57;;;;;;;7.59;100.00;100290.47;5048080;28;20041;-51
2021/12/24 11:41:02;;;;;;;27.88;9.23;;;;;;;7.62;100.00;100281.53;5049055;28;20127;-52
2021/12/24 11:43:34;;;;;;;23.90;8.13;;;;;;;7.61;100.00;100270.25;5051231;28;20781;-51
2021/12/24 11:46:04;;;;;;;19.85;9.13;;;;;;;7.65;100.00;100272.66;5051353;28;20033;-53
2021/12/24 11:48:34;;;;;;;25.10;9.25;;;;;;;7.68;100.00;100272.50;5055030;28;20499;-54
2021/12/24 11:51:05;;;;;;;22.15;8.27;;;;;;;7.75;100.00;100268.56;5055165;28;20041;-54
2021/12/24 11:53:34;;;;;;;27.38;8.40;;;;;;;7.76;100.00;100272.88;5051980;28;20064;-55
2021/12/24 11:56:07;;;;;;;16.15;6.68;;;;;;;7.76;100.00;100275.47;5053348;28;20041;-53
2021/12/24 11:58:42;;;;;;;23.83;7.30;;;;;;;7.80;100.00;100274.34;5054621;28;20049;-54
2021/12/24 12:01:11;;;;;;;21.50;7.35;;;;;;;7.84;100.00;100275.84;5054697;28;20049;-51
2021/12/24 12:03:40;;;;;;;20.13;6.90;;;;;;;7.93;100.00;100277.03;5051274;28;20063;-55
2021/12/24 12:06:11;;;;;;;22.90;6.90;;;;;;;7.95;100.00;100268.13;5035571;28;20046;-55
2021/12/24 12:08:41;;;;;;;19.70;7.57;;;;;;;7.92;100.00;100278.81;5033589;28;20487;-54
2021/12/24 12:11:21;;;;;;;20.63;6.20;;;;;;;8.03;100.00;100272.91;5046188;28;20045;-55
2021/12/24 12:13:54;;;;;;;17.08;6.68;;;;;;;8.02;100.00;100275.63;5054626;28;20049;-52
2021/12/24 12:16:26;;;;;;;21.70;6.57;;;;;;;8.00;100.00;100278.31;5051585;28;20488;-53
2021/12/24 12:19:15;;;;;;;16.23;6.10;;;;;;;8.04;100.00;100277.19;5051899;28;20053;-54
2021/12/24 12:22:12;;;;;;;21.58;7.78;;;;;;;8.00;100.00;100278.31;5054530;28;20052;-55
2021/12/24 12:27:31;;;;;;;24.48;8.45;;;;;;;8.08;100.00;100269.97;5043211;28;20501;-53
2021/12/24 12:30:28;;;;;;;21.00;8.02;;;;;;;8.10;100.00;100266.31;5054724;28;20496;-54
2021/12/24 12:33:09;;;;;;;15.52;6.90;;;;;;;8.04;100.00;100263.25;5054764;28;20049;-55
2021/12/24 12:35:42;;;;;;;19.38;7.70;;;;;;;8.09;100.00;100269.88;5040312;28;20107;-54
2021/12/24 12:38:30;;;;;;;21.08;7.32;;;;;;;8.06;100.00;100264.00;5040595;28;20041;-53
2021/12/24 12:41:25;;;;;;;20.00;7.97;;;;;;;8.06;100.00;100269.25;5042958;28;20055;-55
2021/12/24 12:43:56;;;;;;;25.45;8.05;;;;;;;8.08;100.00;100277.84;5034433;28;20053;-54
2021/12/24 12:46:31;;;;;;;20.70;9.15;;;;;;;8.00;100.00;100272.25;5039711;28;20037;-52
2021/12/24 12:49:02;;;;;;;25.35;8.52;;;;;;;8.01;100.00;100266.06;5041376;28;20088;-56
2021/12/24 12:51:51;;;;;;;;;;;;;;;8.01;100.00;100263.47;5034906;28;20112;-56